createdAt,value
2022-10-13T00:00:34.449Z,99.99
2022-10-13T00:01:34.326Z,99.99
2022-10-13T00:02:34.316Z,99.44
2022-10-13T00:03:34.307Z,98.83
2022-10-13T00:04:34.297Z,99.82
2022-10-13T00:05:34.284Z,99.09
2022-10-13T00:06:34.272Z,99.19
2022-10-13T00:07:34.273Z,98.78
2022-10-13T00:08:34.256Z,97.96
2022-10-13T00:09:34.244Z,98.27
2022-10-13T00:10:34.236Z,97.89
2022-10-13T00:11:34.225Z,97.59
2022-10-13T00:12:34.212Z,97.89
2022-10-13T00:13:34.202Z,97.69
2022-10-13T00:14:34.194Z,97.59
2022-10-13T00:15:34.183Z,97.69
2022-10-13T00:16:34.169Z,97.79
2022-10-13T00:17:34.162Z,97.89
2022-10-13T00:18:34.152Z,97.79
2022-10-13T00:19:34.144Z,97.49
2022-10-13T00:20:34.134Z,98.10
2022-10-13T00:21:34.122Z,98.10
2022-10-13T00:22:34.112Z,99.24
2022-10-13T00:23:34.101Z,99.76
2022-10-13T00:24:34.089Z,99.99
2022-10-13T00:25:34.081Z,99.99
2022-10-13T00:26:34.070Z,99.92
2022-10-13T00:27:34.059Z,99.61
2022-10-13T00:28:34.095Z,99.61
2022-10-13T00:29:34.041Z,99.30
2022-10-13T00:30:34.028Z,99.09
2022-10-13T00:31:34.020Z,98.99
2022-10-13T00:32:34.016Z,97.96
2022-10-13T00:33:33.998Z,98.21
2022-10-13T00:34:33.986Z,97.89
2022-10-13T00:35:33.977Z,97.49
2022-10-13T00:36:33.968Z,97.07
2022-10-13T00:37:33.957Z,97.69
2022-10-13T00:38:33.947Z,97.07
2022-10-13T00:39:33.941Z,98.00
2022-10-13T00:40:33.936Z,97.79
2022-10-13T00:41:33.916Z,97.69
2022-10-13T00:42:33.905Z,97.49
2022-10-13T00:43:33.898Z,97.49
2022-10-13T00:44:33.886Z,97.53
2022-10-13T00:45:33.881Z,98.05
2022-10-13T00:46:33.869Z,98.15
2022-10-13T00:47:33.857Z,97.74
2022-10-13T00:48:33.845Z,97.84
2022-10-13T00:49:33.835Z,97.84
2022-10-13T00:50:33.825Z,97.89
2022-10-13T00:51:33.816Z,98.25
2022-10-13T00:52:33.803Z,98.15
2022-10-13T00:53:33.793Z,98.05
2022-10-13T00:54:33.784Z,98.56
2022-10-13T00:55:33.773Z,98.66
2022-10-13T00:56:33.763Z,98.72
2022-10-13T00:57:33.752Z,99.65
2022-10-13T00:58:33.742Z,99.29
2022-10-13T00:59:33.733Z,99.18
2022-10-13T01:00:33.759Z,99.39
2022-10-13T01:01:33.712Z,98.72
2022-10-13T01:02:33.701Z,99.18
2022-10-13T01:03:33.695Z,98.35
2022-10-13T01:04:33.678Z,99.39
2022-10-13T01:05:33.669Z,99.08
2022-10-13T01:06:33.661Z,99.18
2022-10-13T01:07:33.648Z,98.77
2022-10-13T01:08:33.640Z,99.29
2022-10-13T01:09:33.631Z,98.66
2022-10-13T01:10:33.618Z,98.97
2022-10-13T01:11:33.608Z,99.74
2022-10-13T01:12:33.602Z,99.54
2022-10-13T01:13:33.587Z,99.49
2022-10-13T01:14:33.579Z,99.64
2022-10-13T01:15:33.566Z,99.60
2022-10-13T01:16:33.556Z,99.33
2022-10-13T01:17:33.550Z,99.02
2022-10-13T01:18:33.537Z,98.92
2022-10-13T01:19:33.527Z,99.13
2022-10-13T01:20:33.516Z,99.33
2022-10-13T01:21:33.507Z,99.17
2022-10-13T01:22:33.494Z,99.17
2022-10-13T01:23:33.489Z,98.96
2022-10-13T01:24:33.475Z,99.43
2022-10-13T01:25:33.463Z,98.82
2022-10-13T01:26:33.455Z,99.23
2022-10-13T01:27:33.444Z,99.17
2022-10-13T01:28:33.492Z,98.86
2022-10-13T01:29:33.423Z,98.86
2022-10-13T01:30:33.413Z,98.75
2022-10-13T01:31:33.401Z,99.27
2022-10-13T01:32:33.391Z,99.07
2022-10-13T01:33:33.381Z,98.96
2022-10-13T01:34:33.373Z,99.27
2022-10-13T01:35:33.359Z,99.17
2022-10-13T01:36:33.349Z,99.48
2022-10-13T01:37:33.340Z,99.58
2022-10-13T01:38:33.328Z,99.58
2022-10-13T01:39:33.322Z,99.38
2022-10-13T01:40:33.307Z,99.90
2022-10-13T01:41:33.298Z,99.79
2022-10-13T01:42:33.288Z,99.69
2022-10-13T01:43:33.277Z,99.79
2022-10-13T01:44:33.264Z,99.58
2022-10-13T01:45:33.263Z,99.58
2022-10-13T01:46:33.246Z,99.79
2022-10-13T01:47:33.236Z,99.79
2022-10-13T01:48:33.226Z,99.58
2022-10-13T01:49:33.222Z,99.79
2022-10-13T01:50:33.205Z,99.63
2022-10-13T01:51:33.196Z,99.69
2022-10-13T01:52:33.185Z,99.73
2022-10-13T01:53:33.173Z,99.58
2022-10-13T01:54:33.166Z,99.58
2022-10-13T01:55:33.153Z,99.73
2022-10-13T01:56:33.141Z,99.58
2022-10-13T01:57:33.134Z,99.58
2022-10-13T01:58:33.120Z,99.90
2022-10-13T01:59:33.113Z,99.79
2022-10-13T02:00:33.186Z,99.69
2022-10-13T02:01:33.090Z,99.84
2022-10-13T02:02:33.079Z,99.43
2022-10-13T02:03:33.070Z,99.43
2022-10-13T02:04:33.058Z,99.43
2022-10-13T02:05:33.048Z,99.63
2022-10-13T02:06:33.038Z,99.63
2022-10-13T02:07:33.027Z,99.43
2022-10-13T02:08:33.018Z,99.73
2022-10-13T02:09:33.004Z,99.73
2022-10-13T02:10:32.995Z,99.63
2022-10-13T02:11:32.987Z,99.99
2022-10-13T02:12:32.972Z,99.99
2022-10-13T02:13:32.962Z,99.99
2022-10-13T02:14:32.969Z,99.99
2022-10-13T02:15:32.942Z,99.99
2022-10-13T02:16:32.931Z,99.99
2022-10-13T02:17:32.922Z,99.99
2022-10-13T02:18:32.922Z,99.99
2022-10-13T02:19:32.909Z,99.99
2022-10-13T02:20:32.889Z,99.99
2022-10-13T02:21:32.878Z,99.99
2022-10-13T02:22:32.869Z,99.99
2022-10-13T02:23:32.858Z,99.99
2022-10-13T02:24:32.848Z,99.99
2022-10-13T02:25:32.838Z,99.99
2022-10-13T02:26:32.825Z,99.99
2022-10-13T02:27:32.815Z,99.99
2022-10-13T02:28:32.847Z,99.99
2022-10-13T02:29:32.793Z,99.99
2022-10-13T02:30:32.782Z,99.99
2022-10-13T02:31:32.773Z,99.99
2022-10-13T02:32:32.764Z,99.99
2022-10-13T02:33:32.754Z,99.99
2022-10-13T02:34:32.741Z,99.99
2022-10-13T02:35:32.732Z,99.99
2022-10-13T02:36:32.726Z,99.99
2022-10-13T02:37:32.717Z,99.99
2022-10-13T02:38:32.696Z,99.99
2022-10-13T02:39:32.693Z,99.99
2022-10-13T02:40:32.678Z,99.99
2022-10-13T02:41:32.664Z,99.99
2022-10-13T02:42:32.656Z,99.99
2022-10-13T02:43:32.655Z,99.99
2022-10-13T02:44:32.637Z,99.99
2022-10-13T02:45:32.624Z,99.99
2022-10-13T02:46:32.614Z,99.99
2022-10-13T02:47:32.605Z,99.99
2022-10-13T02:48:32.587Z,99.99
2022-10-13T02:49:32.583Z,99.99
2022-10-13T02:50:32.570Z,99.99
2022-10-13T02:51:36.297Z,99.99
2022-10-13T02:52:32.549Z,99.99
2022-10-13T02:53:32.535Z,99.99
2022-10-13T02:54:32.527Z,99.99
2022-10-13T02:55:32.518Z,99.99
2022-10-13T02:56:32.507Z,99.99
2022-10-13T02:57:32.497Z,99.99
2022-10-13T02:58:32.485Z,99.99
2022-10-13T02:59:32.475Z,99.99
2022-10-13T03:00:32.532Z,99.99
2022-10-13T03:01:32.485Z,99.99
2022-10-13T03:02:32.440Z,99.99
2022-10-13T03:03:32.432Z,99.99
2022-10-13T03:04:32.422Z,99.99
2022-10-13T03:05:32.413Z,99.99
2022-10-13T03:06:32.406Z,99.99
2022-10-13T03:07:32.390Z,99.99
2022-10-13T03:08:32.382Z,99.99
2022-10-13T03:09:32.368Z,99.99
2022-10-13T03:10:32.365Z,99.99
2022-10-13T03:11:32.347Z,99.99
2022-10-13T03:12:32.412Z,99.99
2022-10-13T03:13:32.327Z,99.99
2022-10-13T03:14:32.315Z,99.99
2022-10-13T03:15:32.305Z,99.99
2022-10-13T03:16:32.294Z,99.99
2022-10-13T03:17:32.285Z,99.99
2022-10-13T03:18:32.275Z,99.99
2022-10-13T03:19:32.261Z,99.99
2022-10-13T03:20:32.253Z,99.99
2022-10-13T03:21:32.241Z,99.99
2022-10-13T03:22:32.232Z,99.99
2022-10-13T03:23:32.220Z,99.99
2022-10-13T03:24:32.209Z,99.99
2022-10-13T03:25:32.199Z,99.99
2022-10-13T03:26:32.188Z,99.99
2022-10-13T03:27:32.179Z,99.99
2022-10-13T03:28:32.385Z,99.99
2022-10-13T03:29:32.154Z,99.99
2022-10-13T03:30:32.153Z,99.99
2022-10-13T03:31:32.132Z,99.99
2022-10-13T03:32:32.124Z,99.99
2022-10-13T03:33:32.116Z,99.99
2022-10-13T03:34:32.106Z,99.99
2022-10-13T03:35:32.092Z,99.99
2022-10-13T03:36:32.081Z,99.99
2022-10-13T03:37:32.073Z,99.99
2022-10-13T03:38:32.061Z,99.99
2022-10-13T03:39:32.055Z,99.99
2022-10-13T03:40:32.038Z,99.99
2022-10-13T03:41:32.025Z,99.99
2022-10-13T03:42:32.020Z,99.99
2022-10-13T03:43:32.004Z,99.99
2022-10-13T03:44:32.027Z,99.99
2022-10-13T03:45:31.989Z,99.99
2022-10-13T03:46:31.979Z,99.99
2022-10-13T03:47:31.966Z,99.99
2022-10-13T03:48:31.954Z,99.99
2022-10-13T03:49:31.944Z,99.99
2022-10-13T03:50:31.932Z,99.99
2022-10-13T03:51:31.927Z,99.99
2022-10-13T03:52:31.911Z,99.99
2022-10-13T03:53:31.900Z,99.99
2022-10-13T03:54:31.888Z,99.99
2022-10-13T03:55:31.882Z,99.99
2022-10-13T03:56:31.870Z,99.99
2022-10-13T03:57:31.857Z,99.99
2022-10-13T03:58:31.851Z,99.99
2022-10-13T03:59:36.361Z,99.99
2022-10-13T04:00:31.826Z,99.99
2022-10-13T04:01:31.839Z,99.99
2022-10-13T04:02:31.805Z,99.99
2022-10-13T04:03:31.795Z,99.99
2022-10-13T04:04:31.784Z,99.99
2022-10-13T04:05:31.774Z,99.99
2022-10-13T04:06:31.763Z,99.99
2022-10-13T04:07:31.754Z,99.99
2022-10-13T04:08:31.742Z,99.99
2022-10-13T04:09:31.730Z,99.99
2022-10-13T04:10:31.724Z,99.99
2022-10-13T04:11:31.709Z,99.99
2022-10-13T04:12:31.706Z,99.99
2022-10-13T04:13:31.687Z,99.99
2022-10-13T04:14:31.680Z,99.99
2022-10-13T04:15:31.663Z,99.99
2022-10-13T04:16:31.664Z,99.99
2022-10-13T04:17:31.647Z,99.99
2022-10-13T04:18:31.640Z,99.99
2022-10-13T04:19:31.638Z,99.99
2022-10-13T04:20:31.619Z,99.99
2022-10-13T04:21:31.601Z,99.99
2022-10-13T04:22:31.598Z,99.99
2022-10-13T04:23:31.586Z,99.99
2022-10-13T04:24:31.569Z,99.99
2022-10-13T04:25:31.562Z,99.99
2022-10-13T04:26:31.554Z,99.99
2022-10-13T04:27:31.547Z,99.99
2022-10-13T04:28:31.588Z,99.99
2022-10-13T04:29:31.525Z,99.99
2022-10-13T04:30:31.511Z,99.99
2022-10-13T04:31:31.502Z,99.99
2022-10-13T04:32:31.491Z,99.99
2022-10-13T04:33:31.480Z,99.99
2022-10-13T04:34:31.470Z,99.99
2022-10-13T04:35:31.460Z,99.99
2022-10-13T04:36:31.453Z,99.99
2022-10-13T04:37:31.440Z,99.99
2022-10-13T04:38:31.428Z,99.99
2022-10-13T04:39:31.421Z,99.99
2022-10-13T04:40:31.411Z,99.99
2022-10-13T04:41:31.398Z,99.99
2022-10-13T04:42:31.388Z,99.99
2022-10-13T04:43:31.376Z,99.99
2022-10-13T04:44:31.367Z,99.99
2022-10-13T04:45:31.357Z,99.99
2022-10-13T04:46:31.350Z,99.99
2022-10-13T04:47:36.135Z,99.99
2022-10-13T04:48:31.321Z,99.99
2022-10-13T04:49:31.314Z,99.99
2022-10-13T04:50:31.305Z,99.99
2022-10-13T04:51:31.295Z,99.99
2022-10-13T04:52:31.284Z,99.99
2022-10-13T04:53:31.274Z,99.99
2022-10-13T04:54:31.262Z,99.99
2022-10-13T04:55:31.254Z,99.99
2022-10-13T04:56:31.242Z,99.99
2022-10-13T04:57:31.233Z,99.99
2022-10-13T04:58:31.221Z,99.99
2022-10-13T04:59:31.212Z,99.99
2022-10-13T05:00:31.247Z,99.99
2022-10-13T05:01:31.195Z,99.99
2022-10-13T05:02:31.181Z,99.99
2022-10-13T05:03:31.170Z,99.99
2022-10-13T05:04:31.160Z,99.99
2022-10-13T05:05:31.151Z,99.99
2022-10-13T05:06:31.141Z,99.99
2022-10-13T05:07:31.131Z,99.99
2022-10-13T05:08:31.118Z,99.99
2022-10-13T05:09:31.107Z,99.99
2022-10-13T05:10:34.676Z,99.99
2022-10-13T05:11:31.093Z,99.99
2022-10-13T05:12:31.079Z,99.99
2022-10-13T05:13:31.070Z,99.99
2022-10-13T05:14:31.077Z,99.99
2022-10-13T05:15:31.049Z,99.99
2022-10-13T05:16:31.040Z,99.99
2022-10-13T05:17:35.054Z,99.99
2022-10-13T05:18:31.019Z,99.99
2022-10-13T05:19:31.010Z,99.99
2022-10-13T05:20:31.002Z,99.99
2022-10-13T05:21:31.020Z,99.99
2022-10-13T05:22:30.975Z,99.99
2022-10-13T05:23:30.968Z,99.99
2022-10-13T05:24:31.028Z,99.99
2022-10-13T05:25:33.799Z,99.99
2022-10-13T05:26:30.938Z,99.99
2022-10-13T05:27:30.929Z,99.99
2022-10-13T05:28:30.956Z,99.99
2022-10-13T05:29:30.909Z,99.99
2022-10-13T05:30:30.897Z,99.99
2022-10-13T05:31:30.889Z,99.99
2022-10-13T05:32:30.872Z,99.99
2022-10-13T05:33:30.870Z,99.99
2022-10-13T05:34:30.860Z,99.99
2022-10-13T05:35:30.848Z,99.99
2022-10-13T05:36:30.848Z,99.99
2022-10-13T05:37:30.825Z,99.99
2022-10-13T05:38:30.815Z,99.99
2022-10-13T05:39:30.806Z,99.99
2022-10-13T05:40:30.795Z,99.99
2022-10-13T05:41:30.786Z,99.99
2022-10-13T05:42:30.779Z,99.99
2022-10-13T05:43:30.767Z,99.99
2022-10-13T05:44:30.759Z,99.99
2022-10-13T05:45:30.747Z,99.99
2022-10-13T05:46:30.734Z,99.99
2022-10-13T05:47:30.724Z,99.99
2022-10-13T05:48:30.712Z,99.99
2022-10-13T05:49:30.705Z,99.99
2022-10-13T05:50:30.693Z,99.99
2022-10-13T05:51:30.688Z,99.99
2022-10-13T05:52:30.675Z,99.99
2022-10-13T05:53:30.662Z,99.99
2022-10-13T05:54:30.651Z,99.99
2022-10-13T05:55:30.647Z,99.99
2022-10-13T05:56:30.633Z,99.99
2022-10-13T05:57:30.630Z,99.99
2022-10-13T05:58:30.624Z,99.99
2022-10-13T05:59:30.604Z,99.99
2022-10-13T06:00:30.593Z,99.99
2022-10-13T06:01:30.617Z,99.99
2022-10-13T06:02:30.575Z,99.99
2022-10-13T06:03:30.564Z,99.99
2022-10-13T06:04:30.552Z,99.99
2022-10-13T06:05:30.543Z,99.99
2022-10-13T06:06:31.577Z,99.99
2022-10-13T06:07:30.526Z,99.99
2022-10-13T06:08:30.514Z,99.99
2022-10-13T06:09:30.503Z,99.79
2022-10-13T06:10:30.495Z,99.99
2022-10-13T06:11:30.483Z,99.79
2022-10-13T06:12:30.475Z,99.84
2022-10-13T06:13:30.464Z,99.84
2022-10-13T06:14:30.455Z,99.84
2022-10-13T06:15:30.445Z,99.99
2022-10-13T06:16:30.433Z,99.99
2022-10-13T06:17:30.426Z,99.99
2022-10-13T06:18:30.415Z,99.79
2022-10-13T06:19:30.406Z,99.84
2022-10-13T06:20:30.395Z,99.69
2022-10-13T06:21:30.384Z,99.43
2022-10-13T06:22:30.377Z,99.38
2022-10-13T06:23:30.363Z,99.73
2022-10-13T06:24:30.355Z,99.32
2022-10-13T06:25:30.344Z,99.69
2022-10-13T06:26:30.337Z,99.38
2022-10-13T06:27:30.329Z,99.38
2022-10-13T06:28:30.357Z,99.38
2022-10-13T06:29:30.307Z,99.17
2022-10-13T06:30:30.300Z,99.23
2022-10-13T06:31:30.290Z,99.17
2022-10-13T06:32:30.279Z,98.76
2022-10-13T06:33:30.268Z,99.13
2022-10-13T06:34:30.259Z,99.13
2022-10-13T06:35:30.252Z,99.23
2022-10-13T06:36:30.245Z,99.23
2022-10-13T06:37:30.231Z,98.82
2022-10-13T06:38:30.226Z,98.92
2022-10-13T06:39:30.211Z,98.88
2022-10-13T06:40:30.201Z,98.92
2022-10-13T06:41:30.193Z,98.82
2022-10-13T06:42:30.183Z,98.57
2022-10-13T06:43:36.000Z,98.57
2022-10-13T06:44:30.161Z,98.88
2022-10-13T06:45:30.152Z,98.05
2022-10-13T06:46:30.149Z,98.97
2022-10-13T06:47:30.132Z,98.97
2022-10-13T06:48:30.126Z,98.88
2022-10-13T06:49:30.117Z,98.36
2022-10-13T06:50:30.109Z,97.53
2022-10-13T06:51:30.100Z,97.64
2022-10-13T06:52:30.087Z,97.64
2022-10-13T06:53:30.079Z,97.74
2022-10-13T06:54:30.067Z,97.69
2022-10-13T06:55:30.062Z,97.74
2022-10-13T06:56:30.050Z,97.69
2022-10-13T06:57:30.039Z,97.80
2022-10-13T06:58:30.031Z,97.90
2022-10-13T06:59:30.023Z,97.86
2022-10-13T07:00:30.052Z,97.65
2022-10-13T07:01:30.001Z,97.96
2022-10-13T07:02:30.007Z,97.81
2022-10-13T07:03:29.983Z,97.09
2022-10-13T07:04:29.973Z,97.30
2022-10-13T07:05:29.964Z,96.33
2022-10-13T07:06:29.955Z,96.84
2022-10-13T07:07:29.967Z,96.94
2022-10-13T07:08:29.939Z,96.84
2022-10-13T07:09:29.926Z,96.43
2022-10-13T07:10:29.917Z,96.33
2022-10-13T07:11:29.908Z,96.08
2022-10-13T07:12:29.938Z,95.77
2022-10-13T07:13:32.427Z,95.72
2022-10-13T07:14:29.884Z,95.52
2022-10-13T07:15:29.872Z,94.70
2022-10-13T07:16:29.866Z,94.90
2022-10-13T07:17:29.853Z,94.39
2022-10-13T07:18:29.846Z,94.49
2022-10-13T07:19:29.835Z,94.45
2022-10-13T07:20:29.827Z,94.65
2022-10-13T07:21:29.819Z,94.14
2022-10-13T07:22:29.811Z,93.52
2022-10-13T07:23:29.800Z,93.42
2022-10-13T07:24:29.789Z,93.68
2022-10-13T07:25:29.784Z,93.52
2022-10-13T07:26:29.773Z,93.48
2022-10-13T07:27:29.767Z,93.59
2022-10-13T07:28:29.777Z,93.32
2022-10-13T07:29:29.746Z,92.97
2022-10-13T07:30:29.739Z,93.17
2022-10-13T07:31:29.727Z,93.44
2022-10-13T07:32:29.720Z,92.00
2022-10-13T07:33:29.711Z,92.16
2022-10-13T07:34:29.703Z,92.36
2022-10-13T07:35:30.973Z,92.43
2022-10-13T07:36:29.684Z,91.40
2022-10-13T07:37:29.675Z,91.40
2022-10-13T07:38:29.667Z,91.05
2022-10-13T07:39:29.659Z,90.13
2022-10-13T07:40:29.651Z,90.17
2022-10-13T07:41:29.641Z,90.03
2022-10-13T07:42:29.634Z,89.83
2022-10-13T07:43:29.627Z,89.62
2022-10-13T07:44:29.617Z,89.42
2022-10-13T07:45:29.609Z,89.17
2022-10-13T07:46:29.858Z,89.27
2022-10-13T07:47:29.590Z,89.27
2022-10-13T07:48:29.584Z,88.56
2022-10-13T07:49:29.575Z,89.06
2022-10-13T07:50:29.582Z,88.96
2022-10-13T07:51:29.557Z,88.76
2022-10-13T07:52:29.552Z,88.96
2022-10-13T07:53:29.540Z,88.31
2022-10-13T07:54:29.531Z,87.70
2022-10-13T07:55:29.523Z,88.41
2022-10-13T07:56:29.513Z,88.20
2022-10-13T07:57:29.506Z,88.10
2022-10-13T07:58:29.499Z,87.90
2022-10-13T07:59:29.492Z,88.17
2022-10-13T08:00:29.485Z,87.96
2022-10-13T08:01:29.493Z,87.24
2022-10-13T08:02:29.469Z,86.29
2022-10-13T08:03:29.505Z,86.59
2022-10-13T08:04:29.451Z,86.04
2022-10-13T08:05:29.441Z,85.73
2022-10-13T08:06:29.490Z,85.08
2022-10-13T08:07:29.425Z,84.57
2022-10-13T08:08:29.418Z,84.77
2022-10-13T08:09:29.430Z,84.67
2022-10-13T08:10:29.403Z,84.63
2022-10-13T08:11:29.395Z,84.67
2022-10-13T08:12:29.385Z,84.63
2022-10-13T08:13:29.379Z,84.53
2022-10-13T08:14:29.479Z,84.12
2022-10-13T08:15:29.362Z,84.49
2022-10-13T08:16:29.357Z,84.39
2022-10-13T08:17:29.345Z,83.06
2022-10-13T08:18:29.339Z,83.73
2022-10-13T08:19:29.332Z,82.71
2022-10-13T08:20:40.862Z,82.92
2022-10-13T08:21:59.291Z,82.41
2022-10-13T08:22:29.310Z,82.00
2022-10-13T08:23:29.305Z,82.71
2022-10-13T08:24:29.293Z,82.21
2022-10-13T08:25:29.283Z,81.80
2022-10-13T08:26:29.277Z,81.59
2022-10-13T08:27:47.620Z,81.59
2022-10-13T08:28:29.279Z,82.10
2022-10-13T08:29:29.312Z,82.82
2022-10-13T08:30:29.301Z,81.59
2022-10-13T08:31:29.458Z,82.10
2022-10-13T08:32:29.237Z,82.82
2022-10-13T08:33:29.231Z,82.51
2022-10-13T08:34:29.221Z,83.43
2022-10-13T08:35:34.080Z,83.12
2022-10-13T08:36:29.206Z,82.07
2022-10-13T08:37:29.204Z,81.90
2022-10-13T08:38:29.192Z,82.10
2022-10-13T08:39:29.186Z,82.07
2022-10-13T08:40:29.176Z,82.47
2022-10-13T08:41:29.172Z,82.27
2022-10-13T08:42:29.164Z,82.13
2022-10-13T08:43:29.161Z,80.50
2022-10-13T08:45:40.743Z,81.01
2022-10-13T08:46:29.139Z,81.01
2022-10-13T08:47:29.135Z,80.70
2022-10-13T08:48:29.120Z,81.07
2022-10-13T08:49:29.116Z,81.07
2022-10-13T08:50:29.112Z,80.97
2022-10-13T08:51:29.103Z,81.34
2022-10-13T08:52:29.094Z,79.61
2022-10-13T08:53:29.093Z,79.81
2022-10-13T08:54:29.078Z,79.61
2022-10-13T08:55:29.078Z,79.91
2022-10-13T08:56:29.072Z,80.08
2022-10-13T08:57:29.061Z,80.08
2022-10-13T08:58:29.054Z,79.98
2022-10-13T08:59:29.047Z,79.74
2022-10-13T09:00:29.042Z,78.52
2022-10-13T09:01:29.089Z,78.41
2022-10-13T09:02:29.028Z,78.62
2022-10-13T09:03:29.019Z,79.19
2022-10-13T09:04:29.013Z,78.52
2022-10-13T09:05:29.002Z,77.97
2022-10-13T09:06:29.019Z,77.97
2022-10-13T09:07:29.008Z,77.67
2022-10-13T09:08:28.992Z,77.36
2022-10-13T09:09:28.981Z,77.56
2022-10-13T09:10:28.976Z,76.72
2022-10-13T09:11:28.969Z,77.33
2022-10-13T09:12:28.962Z,77.63
2022-10-13T09:13:28.952Z,77.22
2022-10-13T09:14:28.965Z,75.90
2022-10-13T09:15:28.944Z,75.84
2022-10-13T09:16:28.938Z,76.21
2022-10-13T09:17:28.935Z,76.10
2022-10-13T09:18:28.925Z,74.58
2022-10-13T09:19:28.920Z,75.84
2022-10-13T09:20:28.911Z,76.65
2022-10-13T09:21:28.908Z,76.65
2022-10-13T09:22:28.898Z,77.67
2022-10-13T09:23:28.895Z,77.53
2022-10-13T09:24:28.891Z,77.16
2022-10-13T09:25:28.882Z,78.28
2022-10-13T09:26:28.877Z,77.56
2022-10-13T09:27:28.869Z,77.73
2022-10-13T09:28:28.905Z,77.53
2022-10-13T09:29:28.858Z,78.24
2022-10-13T09:30:28.850Z,77.33
2022-10-13T09:31:28.854Z,76.82
2022-10-13T09:32:28.842Z,77.83
2022-10-13T09:33:28.838Z,77.33
2022-10-13T09:34:28.828Z,76.61
2022-10-13T09:35:28.823Z,76.72
2022-10-13T09:36:28.841Z,76.61
2022-10-13T09:37:28.821Z,76.31
2022-10-13T09:38:28.805Z,76.41
2022-10-13T09:39:28.800Z,76.95
2022-10-13T09:40:28.792Z,76.86
2022-10-13T09:41:28.783Z,77.26
2022-10-13T09:42:28.781Z,77.22
2022-10-13T09:43:28.776Z,77.43
2022-10-13T09:44:28.767Z,76.61
2022-10-13T09:45:28.783Z,76.82
2022-10-13T09:46:28.754Z,77.53
2022-10-13T09:47:28.751Z,77.94
2022-10-13T09:48:28.744Z,77.33
2022-10-13T09:49:28.741Z,76.88
2022-10-13T09:50:28.734Z,76.68
2022-10-13T09:51:28.726Z,76.28
2022-10-13T09:52:28.720Z,76.68
2022-10-13T09:53:28.845Z,76.68
2022-10-13T09:54:28.721Z,76.48
2022-10-13T09:55:32.187Z,76.78
2022-10-13T09:56:28.696Z,76.48
2022-10-13T09:57:28.691Z,76.98
2022-10-13T09:58:28.689Z,77.19
2022-10-13T09:59:28.679Z,76.68
2022-10-13T10:00:28.673Z,76.88
2022-10-13T10:01:28.672Z,76.48
2022-10-13T10:02:29.011Z,77.29
2022-10-13T10:03:28.659Z,76.68
2022-10-13T10:04:28.730Z,76.34
2022-10-13T10:05:28.643Z,76.98
2022-10-13T10:06:28.641Z,76.68
2022-10-13T10:07:28.640Z,76.48
2022-10-13T10:08:38.751Z,76.68
2022-10-13T10:09:28.627Z,76.68
2022-10-13T10:10:28.616Z,78.30
2022-10-13T10:11:28.613Z,78.24
2022-10-13T10:12:28.611Z,78.61
2022-10-13T10:13:28.599Z,77.70
2022-10-13T10:14:28.595Z,78.10
2022-10-13T10:15:28.588Z,78.30
2022-10-13T10:16:28.581Z,77.39
2022-10-13T10:17:28.575Z,78.37
2022-10-13T10:18:28.573Z,78.30
2022-10-13T10:19:28.562Z,78.10
2022-10-13T10:20:28.556Z,78.20
2022-10-13T10:21:28.556Z,77.97
2022-10-13T10:22:28.551Z,77.86
2022-10-13T10:23:28.551Z,76.64
2022-10-13T10:24:28.574Z,78.17
2022-10-13T10:25:28.552Z,77.72
2022-10-13T10:26:32.479Z,77.12
2022-10-13T10:27:28.587Z,77.93
2022-10-13T10:28:28.619Z,77.42
2022-10-13T10:29:28.507Z,77.62
2022-10-13T10:30:28.502Z,77.69
2022-10-13T10:31:28.496Z,77.42
2022-10-13T10:32:28.493Z,76.78
2022-10-13T10:33:28.487Z,76.27
2022-10-13T10:34:28.482Z,77.28
2022-10-13T10:35:28.474Z,76.54
2022-10-13T10:36:28.469Z,77.14
2022-10-13T10:37:28.464Z,75.82
2022-10-13T10:38:28.461Z,76.03
2022-10-13T10:39:28.456Z,77.14
2022-10-13T10:40:28.445Z,76.84
2022-10-13T10:41:28.443Z,76.80
2022-10-13T10:42:28.438Z,76.13
2022-10-13T10:43:28.432Z,76.64
2022-10-13T10:44:28.425Z,76.23
2022-10-13T10:45:28.454Z,75.93
2022-10-13T10:46:28.414Z,75.12
2022-10-13T10:47:28.833Z,76.33
2022-10-13T10:48:28.406Z,76.74
2022-10-13T10:49:28.397Z,77.45
2022-10-13T10:50:28.394Z,77.45
2022-10-13T10:51:28.387Z,77.61
2022-10-13T10:52:28.395Z,77.95
2022-10-13T10:53:28.378Z,77.82
2022-10-13T10:54:28.369Z,77.41
2022-10-13T10:55:28.367Z,77.21
2022-10-13T10:56:28.405Z,77.31
2022-10-13T10:57:28.356Z,76.43
2022-10-13T10:58:28.352Z,77.11
2022-10-13T10:59:28.345Z,77.51
2022-10-13T11:01:28.363Z,76.80
2022-10-13T11:02:28.329Z,76.77
2022-10-13T11:03:28.323Z,77.11
2022-10-13T11:04:28.319Z,76.50
2022-10-13T11:05:28.310Z,76.70
2022-10-13T11:06:28.311Z,76.56
2022-10-13T11:07:28.301Z,76.67
2022-10-13T11:08:28.300Z,76.70
2022-10-13T11:09:28.293Z,77.07
2022-10-13T11:10:28.290Z,76.56
2022-10-13T11:11:31.038Z,76.56
2022-10-13T11:12:28.279Z,76.56
2022-10-13T11:13:28.273Z,76.36
2022-10-13T11:14:28.269Z,77.37
2022-10-13T11:15:28.308Z,76.36
2022-10-13T11:16:28.259Z,76.16
2022-10-13T11:17:28.251Z,76.12
2022-10-13T11:18:28.251Z,75.82
2022-10-13T11:19:28.248Z,75.82
2022-10-13T11:20:28.239Z,76.43
2022-10-13T11:21:28.235Z,76.03
2022-10-13T11:22:28.242Z,75.99
2022-10-13T11:23:28.226Z,76.90
2022-10-13T11:24:28.236Z,75.48
2022-10-13T11:25:28.213Z,76.29
2022-10-13T11:26:28.210Z,75.79
2022-10-13T11:27:28.201Z,75.92
2022-10-13T11:28:28.269Z,76.23
2022-10-13T11:29:28.193Z,75.82
2022-10-13T11:31:32.084Z,76.36
2022-10-13T11:32:28.182Z,76.23
2022-10-13T11:33:28.176Z,76.83
2022-10-13T11:34:28.170Z,76.23
2022-10-13T11:35:28.175Z,76.67
2022-10-13T11:36:28.160Z,76.67
2022-10-13T11:37:28.152Z,76.46
2022-10-13T11:38:28.150Z,77.28
2022-10-13T11:39:28.326Z,77.88
2022-10-13T11:40:28.140Z,77.95
2022-10-13T11:41:28.134Z,77.44
2022-10-13T11:42:28.129Z,75.92
2022-10-13T11:43:28.123Z,75.72
2022-10-13T11:45:28.114Z,76.12
2022-10-13T11:46:28.110Z,75.52
2022-10-13T11:47:28.104Z,76.53
2022-10-13T11:48:28.099Z,76.12
2022-10-13T11:49:28.096Z,75.82
2022-10-13T11:50:28.096Z,75.82
2022-10-13T11:51:28.088Z,75.82
2022-10-13T11:52:28.078Z,76.43
2022-10-13T11:53:28.088Z,76.63
2022-10-13T11:54:28.076Z,76.53
2022-10-13T11:55:28.067Z,76.12
2022-10-13T11:56:28.063Z,76.09
2022-10-13T11:57:28.057Z,76.39
2022-10-13T11:58:28.050Z,76.50
2022-10-13T11:59:28.046Z,76.59
2022-10-13T12:00:28.041Z,75.95
2022-10-13T12:01:28.040Z,76.05
2022-10-13T12:02:28.066Z,76.56
2022-10-13T12:03:28.029Z,74.40
2022-10-13T12:04:28.021Z,74.70
2022-10-13T12:05:28.015Z,73.90
2022-10-13T12:06:28.013Z,73.75
2022-10-13T12:07:28.008Z,73.28
2022-10-13T12:08:28.001Z,73.75
2022-10-13T12:09:28.000Z,73.35
2022-10-13T12:10:27.995Z,72.85
2022-10-13T12:11:27.989Z,72.04
2022-10-13T12:12:27.981Z,72.44
2022-10-13T12:13:27.989Z,71.03
2022-10-13T12:14:28.062Z,69.62
2022-10-13T12:15:27.971Z,69.92
2022-10-13T12:16:27.963Z,70.12
2022-10-13T12:17:28.253Z,69.62
2022-10-13T12:18:27.957Z,69.42
2022-10-13T12:19:27.956Z,69.18
2022-10-13T12:20:28.028Z,68.17
2022-10-13T12:21:27.943Z,68.10
2022-10-13T12:22:28.083Z,68.60
2022-10-13T12:23:28.006Z,69.08
2022-10-13T12:24:27.952Z,68.87
2022-10-13T12:25:27.926Z,68.67
2022-10-13T12:26:27.922Z,68.37
2022-10-13T12:27:27.917Z,68.67
2022-10-13T12:28:27.957Z,68.17
2022-10-13T12:29:27.909Z,68.84
2022-10-13T12:30:27.901Z,67.73
2022-10-13T12:31:27.919Z,67.63
2022-10-13T12:32:27.897Z,68.24
2022-10-13T12:33:27.892Z,67.50
2022-10-13T12:34:27.885Z,68.04
2022-10-13T12:35:27.884Z,68.21
2022-10-13T12:36:30.063Z,67.50
2022-10-13T12:37:27.876Z,68.21
2022-10-13T12:38:27.866Z,67.30
2022-10-13T12:39:27.870Z,67.70
2022-10-13T12:40:27.861Z,67.10
2022-10-13T12:41:27.864Z,68.10
2022-10-13T12:42:27.849Z,68.10
2022-10-13T12:43:27.849Z,67.50
2022-10-13T12:44:27.844Z,66.59
2022-10-13T12:45:27.843Z,66.66
2022-10-13T12:46:27.841Z,67.47
2022-10-13T12:47:27.835Z,67.50
2022-10-13T12:48:27.882Z,66.89
2022-10-13T12:49:27.829Z,68.10
2022-10-13T12:50:27.827Z,68.10
2022-10-13T12:51:27.820Z,68.01
2022-10-13T12:52:27.813Z,68.10
2022-10-13T12:53:27.811Z,67.83
2022-10-13T12:54:27.804Z,68.24
2022-10-13T12:55:27.802Z,69.35
2022-10-13T12:56:27.800Z,68.44